createdAt,value
2019-01-10T00:01:16.166Z,101656.64
2019-01-10T00:03:45.724Z,101663.03
2019-01-10T00:06:14.964Z,101667.18
2019-01-10T00:08:44.184Z,101671.22
2019-01-10T00:11:13.390Z,101669.75
2019-01-10T00:13:42.963Z,101673.78
2019-01-10T00:16:12.145Z,101675.54
2019-01-10T00:18:41.689Z,101677.83
2019-01-10T00:21:10.917Z,101676.04
2019-01-10T00:23:40.457Z,101680.25
2019-01-10T00:26:10.064Z,101683.27
2019-01-10T00:28:39.551Z,101690.55
2019-01-10T00:31:08.718Z,101692.38
2019-01-10T00:33:38.670Z,101693.40
2019-01-10T00:36:08.119Z,101696.45
2019-01-10T00:38:37.418Z,101700.64
2019-01-10T00:41:06.652Z,101696.38
2019-01-10T00:43:36.164Z,101689.04
2019-01-10T00:46:05.741Z,101684.19
2019-01-10T00:48:34.891Z,101685.56
2019-01-10T00:51:04.108Z,101688.83
2019-01-10T00:53:33.275Z,101680.67
2019-01-10T00:56:03.282Z,101690.02
2019-01-10T00:58:32.720Z,101687.56
2019-01-10T01:01:01.874Z,101680.61
2019-01-10T01:03:31.452Z,101682.85
2019-01-10T01:06:01.190Z,101682.67
2019-01-10T01:08:30.353Z,101682.39
2019-01-10T01:10:59.522Z,101684.98
2019-01-10T01:13:28.798Z,101688.47
2019-01-10T01:15:57.951Z,101691.06
2019-01-10T01:18:27.091Z,101686.45
2019-01-10T01:20:56.553Z,101689.30
2019-01-10T01:23:25.809Z,101698.45
2019-01-10T01:25:55.347Z,101711.16
2019-01-10T01:28:24.679Z,101707.57
2019-01-10T01:30:53.854Z,101713.41
2019-01-10T01:33:23.354Z,101713.50
2019-01-10T01:35:52.547Z,101715.59
2019-01-10T01:38:21.707Z,101722.48
2019-01-10T01:40:51.698Z,101727.67
2019-01-10T01:43:21.136Z,101731.20
2019-01-10T01:45:50.992Z,101732.58
2019-01-10T01:48:20.936Z,101739.84
2019-01-10T01:50:50.117Z,101730.19
2019-01-10T01:53:19.412Z,101734.17
2019-01-10T01:55:48.614Z,101733.78
2019-01-10T01:58:18.643Z,101738.63
2019-01-10T02:00:48.054Z,101739.06
2019-01-10T02:03:17.187Z,101732.92
2019-01-10T02:05:46.703Z,101731.52
2019-01-10T02:08:15.897Z,101744.16
2019-01-10T02:10:45.118Z,101739.27
2019-01-10T02:13:16.908Z,101745.36
2019-01-10T02:15:45.228Z,101745.06
2019-01-10T02:18:14.431Z,101748.80
2019-01-10T02:20:43.617Z,101743.81
2019-01-10T02:23:12.757Z,101749.72
2019-01-10T02:25:41.926Z,101749.27
2019-01-10T02:28:11.463Z,101748.06
2019-01-10T02:30:42.058Z,101744.28
2019-01-10T02:33:11.679Z,101750.31
2019-01-10T02:35:40.912Z,101760.81
2019-01-10T02:38:10.093Z,101766.83
2019-01-10T02:40:39.617Z,101755.53
2019-01-10T02:43:09.199Z,101757.94
2019-01-10T02:45:38.732Z,101760.83
2019-01-10T02:48:07.902Z,101771.88
2019-01-10T02:50:37.751Z,101764.27
2019-01-10T02:53:07.041Z,101771.87
2019-01-10T02:55:36.249Z,101773.42
2019-01-10T02:58:05.750Z,101789.30
2019-01-10T03:00:35.289Z,101777.32
2019-01-10T03:03:04.485Z,101777.06
2019-01-10T03:05:33.723Z,101770.56
2019-01-10T03:08:02.910Z,101771.31
2019-01-10T03:10:32.150Z,101769.63
2019-01-10T03:13:02.464Z,101770.02
2019-01-10T03:15:31.671Z,101770.38
2019-01-10T03:18:01.484Z,101763.42
2019-01-10T03:20:30.671Z,101760.27
2019-01-10T03:22:59.840Z,101762.59
2019-01-10T03:25:29.392Z,101755.83
2019-01-10T03:27:58.926Z,101758.69
2019-01-10T03:30:28.445Z,101755.63
2019-01-10T03:32:57.787Z,101760.73
2019-01-10T03:35:27.064Z,101762.37
2019-01-10T03:37:56.190Z,101767.86
2019-01-10T03:40:25.713Z,101764.98
2019-01-10T03:42:55.202Z,101777.97
2019-01-10T03:45:24.451Z,101780.20
2019-01-10T03:47:53.582Z,101776.56
2019-01-10T03:50:22.866Z,101767.88
2019-01-10T03:52:52.059Z,101776.11
2019-01-10T03:55:21.233Z,101779.81
2019-01-10T03:57:50.848Z,101770.17
2019-01-10T04:00:24.581Z,101777.05
2019-01-10T04:02:53.736Z,101777.41
2019-01-10T04:05:23.412Z,101774.06
2019-01-10T04:07:52.598Z,101785.75
2019-01-10T04:10:22.105Z,101781.30
2019-01-10T04:12:51.549Z,101790.95
2019-01-10T04:15:20.815Z,101789.75
2019-01-10T04:17:50.981Z,101783.80
2019-01-10T04:20:20.257Z,101777.95
2019-01-10T04:22:49.448Z,101779.80
2019-01-10T04:25:18.671Z,101772.85
2019-01-10T04:27:47.814Z,101771.11
2019-01-10T04:30:21.828Z,101773.16
2019-01-10T04:32:50.982Z,101768.11
2019-01-10T04:35:20.510Z,101766.81
2019-01-10T04:37:50.044Z,101766.25
2019-01-10T04:40:21.064Z,101769.30
2019-01-10T04:42:50.482Z,101777.18
2019-01-10T04:45:19.622Z,101777.00
2019-01-10T04:47:49.117Z,101776.95
2019-01-10T04:50:18.720Z,101778.61
2019-01-10T04:52:48.355Z,101776.52
2019-01-10T04:55:17.486Z,101776.13
2019-01-10T04:57:47.230Z,101771.77
2019-01-10T05:00:19.733Z,101773.33
2019-01-10T05:02:48.886Z,101772.12
2019-01-10T05:05:18.143Z,101771.27
2019-01-10T05:07:47.289Z,101768.06
2019-01-10T05:10:16.962Z,101764.71
2019-01-10T05:12:46.213Z,101767.20
2019-01-10T05:15:15.556Z,101761.80
2019-01-10T05:17:45.057Z,101763.84
2019-01-10T05:20:19.460Z,101764.55
2019-01-10T05:22:48.878Z,101769.04
2019-01-10T05:25:18.081Z,101770.44
2019-01-10T05:27:47.609Z,101769.31
2019-01-10T05:30:26.246Z,101763.00
2019-01-10T05:32:55.765Z,101769.30
2019-01-10T05:35:25.458Z,101769.31
2019-01-10T05:37:54.676Z,101773.11
2019-01-10T05:40:24.203Z,101777.01
2019-01-10T05:42:54.157Z,101780.37
2019-01-10T05:45:23.345Z,101780.60
2019-01-10T05:47:52.513Z,101785.43
2019-01-10T05:50:22.169Z,101790.98
2019-01-10T05:52:51.934Z,101796.28
2019-01-10T05:55:25.936Z,101798.41
2019-01-10T05:57:55.288Z,101788.11
2019-01-10T06:00:27.122Z,101792.26
2019-01-10T06:02:56.943Z,101793.74
2019-01-10T06:05:27.841Z,101796.50
2019-01-10T06:07:57.001Z,101784.75
2019-01-10T06:10:28.242Z,101790.09
2019-01-10T06:12:58.569Z,101785.18
2019-01-10T06:15:27.896Z,101785.18
2019-01-10T06:17:57.141Z,101788.63
2019-01-10T06:20:26.977Z,101788.14
2019-01-10T06:22:56.992Z,101787.81
2019-01-10T06:25:26.290Z,101794.75
2019-01-10T06:27:55.774Z,101803.94
2019-01-10T06:30:25.146Z,101810.89
2019-01-10T06:32:54.821Z,101814.80
2019-01-10T06:35:24.259Z,101814.25
2019-01-10T06:37:53.577Z,101807.28
2019-01-10T06:40:23.191Z,101812.85
2019-01-10T06:42:54.033Z,101817.98
2019-01-10T06:45:23.174Z,101818.72
2019-01-10T06:47:52.924Z,101819.64
2019-01-10T06:50:22.818Z,101816.03
2019-01-10T06:52:52.905Z,101813.69
2019-01-10T06:55:22.182Z,101817.29
2019-01-10T06:57:51.470Z,101821.57
2019-01-10T07:00:25.286Z,101824.07
2019-01-10T07:02:55.318Z,101825.03
2019-01-10T07:05:25.711Z,101823.98
2019-01-10T07:07:56.638Z,101824.09
2019-01-10T07:10:30.476Z,101821.03
2019-01-10T07:12:59.949Z,101825.29
2019-01-10T07:15:29.118Z,101823.83
2019-01-10T07:17:58.665Z,101826.52
2019-01-10T07:20:28.007Z,101829.28
2019-01-10T07:22:57.510Z,101833.83
2019-01-10T07:25:27.050Z,101836.63
2019-01-10T07:27:58.033Z,101843.48
2019-01-10T07:30:35.707Z,101846.83
2019-01-10T07:32:59.645Z,101851.08
2019-01-10T07:35:28.878Z,101849.22
2019-01-10T07:37:58.692Z,101852.27
2019-01-10T07:40:28.551Z,101851.42
2019-01-10T07:42:58.091Z,101859.11
2019-01-10T07:45:28.793Z,101864.05
2019-01-10T07:47:59.236Z,101872.06
2019-01-10T07:50:38.437Z,101875.41
2019-01-10T07:53:09.164Z,101876.51
2019-01-10T07:55:40.769Z,101880.61
2019-01-10T07:58:10.120Z,101874.82
2019-01-10T08:00:40.452Z,101881.31
2019-01-10T08:03:09.628Z,101873.63
2019-01-10T08:05:40.620Z,101870.22
2019-01-10T08:08:10.564Z,101879.61
2019-01-10T08:10:39.778Z,101882.46
2019-01-10T08:13:09.449Z,101884.67
2019-01-10T08:15:38.619Z,101878.81
2019-01-10T08:18:08.019Z,101884.41
2019-01-10T08:20:37.190Z,101889.20
2019-01-10T08:23:06.303Z,101891.55
2019-01-10T08:25:35.546Z,101898.41
2019-01-10T08:28:04.806Z,101885.59
2019-01-10T08:30:34.248Z,101901.10
2019-01-10T08:33:03.789Z,101903.05
2019-01-10T08:35:33.293Z,101900.06
2019-01-10T08:38:03.338Z,101909.16
2019-01-10T08:40:32.493Z,101910.56
2019-01-10T08:43:02.321Z,101904.15
2019-01-10T08:45:31.825Z,101912.70
2019-01-10T08:48:01.129Z,101907.11
2019-01-10T08:50:30.330Z,101916.20
2019-01-10T08:52:59.834Z,101916.64
2019-01-10T08:55:29.008Z,101923.35
2019-01-10T08:57:58.218Z,101918.34
2019-01-10T09:00:27.742Z,101924.66
2019-01-10T09:02:57.132Z,101924.30
2019-01-10T09:05:26.295Z,101927.09
2019-01-10T09:07:55.431Z,101924.84
2019-01-10T09:10:29.645Z,101929.70
2019-01-10T09:12:59.158Z,101932.91
2019-01-10T09:15:34.322Z,101934.80
2019-01-10T09:17:59.576Z,101926.40
2019-01-10T09:20:28.794Z,101933.66
2019-01-10T09:22:57.958Z,101930.56
2019-01-10T09:25:27.620Z,101928.87
2019-01-10T09:27:58.091Z,101936.22
2019-01-10T09:30:27.474Z,101927.66
2019-01-10T09:32:57.161Z,101934.25
2019-01-10T09:35:26.689Z,101936.34
2019-01-10T09:37:55.854Z,101933.94
2019-01-10T09:40:25.144Z,101927.31
2019-01-10T09:42:54.453Z,101928.02
2019-01-10T09:45:25.338Z,101935.26
2019-01-10T09:47:54.898Z,101924.93
2019-01-10T09:50:24.750Z,101931.64
2019-01-10T09:52:54.479Z,101924.39
2019-01-10T09:55:43.051Z,101925.77
2019-01-10T09:58:12.501Z,101918.73
2019-01-10T10:00:41.804Z,101917.27
2019-01-10T10:03:10.970Z,101913.89
2019-01-10T10:05:40.538Z,101915.58
2019-01-10T10:08:10.014Z,101925.48
2019-01-10T10:10:39.516Z,101927.12
2019-01-10T10:13:08.672Z,101927.52
2019-01-10T10:15:37.848Z,101924.45
2019-01-10T10:18:07.038Z,101922.30
2019-01-10T10:20:37.668Z,101926.84
2019-01-10T10:23:07.265Z,101924.41
2019-01-10T10:25:36.762Z,101929.97
2019-01-10T10:28:06.120Z,101916.10
2019-01-10T10:30:36.398Z,101927.09
2019-01-10T10:33:06.318Z,101920.17
2019-01-10T10:35:35.831Z,101923.57
2019-01-10T10:38:05.057Z,101926.16
2019-01-10T10:40:34.286Z,101924.45
2019-01-10T10:43:05.710Z,101928.35
2019-01-10T10:45:35.163Z,101929.20
2019-01-10T10:48:04.383Z,101935.45
2019-01-10T10:50:35.143Z,101938.58
2019-01-10T10:53:06.337Z,101941.92
2019-01-10T10:55:35.826Z,101940.61
2019-01-10T10:58:05.189Z,101935.34
2019-01-10T11:00:36.828Z,101931.83
2019-01-10T11:03:05.990Z,101927.59
2019-01-10T11:05:35.546Z,101932.11
2019-01-10T11:08:04.817Z,101925.82
2019-01-10T11:10:34.186Z,101929.73
2019-01-10T11:13:03.372Z,101922.53
2019-01-10T11:15:32.843Z,101922.52
2019-01-10T11:18:02.201Z,101917.51
2019-01-10T11:20:31.413Z,101914.32
2019-01-10T11:23:10.158Z,101909.52
2019-01-10T11:25:32.076Z,101899.16
2019-01-10T11:28:01.289Z,101902.13
2019-01-10T11:30:31.093Z,101897.78
2019-01-10T11:33:00.672Z,101906.61
2019-01-10T11:35:30.616Z,101898.47
2019-01-10T11:38:00.120Z,101901.05
2019-01-10T11:40:29.758Z,101897.66
2019-01-10T11:42:59.053Z,101895.22
2019-01-10T11:45:29.267Z,101885.23
2019-01-10T11:48:00.197Z,101898.58
2019-01-10T11:50:29.346Z,101887.50
2019-01-10T11:53:00.612Z,101891.36
2019-01-10T11:55:29.812Z,101885.70
2019-01-10T11:57:59.023Z,101888.16
2019-01-10T12:00:31.188Z,101878.81
2019-01-10T12:03:02.224Z,101870.66
2019-01-10T12:05:31.429Z,101863.09
2019-01-10T12:08:00.956Z,101863.06
2019-01-10T12:10:30.465Z,101866.16
2019-01-10T12:12:59.662Z,101863.17
2019-01-10T12:15:29.186Z,101860.94
2019-01-10T12:17:58.420Z,101860.02
2019-01-10T12:20:27.998Z,101862.97
2019-01-10T12:22:57.599Z,101865.70
2019-01-10T12:25:27.223Z,101860.06
2019-01-10T12:27:56.795Z,101861.28
2019-01-10T12:30:26.941Z,101860.22
2019-01-10T12:32:56.168Z,101857.70
2019-01-10T12:35:26.139Z,101862.38
2019-01-10T12:37:55.509Z,101858.70
2019-01-10T12:40:26.072Z,101857.17
2019-01-10T12:42:55.439Z,101851.84
2019-01-10T12:45:24.602Z,101858.75
2019-01-10T12:47:54.076Z,101858.97
2019-01-10T12:50:28.494Z,101858.52
2019-01-10T12:52:57.649Z,101856.27
2019-01-10T12:55:26.889Z,101856.27
2019-01-10T12:57:56.128Z,101854.11
2019-01-10T13:00:25.705Z,101859.24
2019-01-10T13:02:55.908Z,101851.73
2019-01-10T13:05:25.282Z,101850.17
2019-01-10T13:08:03.145Z,101850.29
2019-01-10T13:10:25.984Z,101844.37
2019-01-10T13:12:55.322Z,101837.09
2019-01-10T13:15:28.177Z,101842.45
2019-01-10T13:17:57.643Z,101845.84
2019-01-10T13:20:26.805Z,101840.94
2019-01-10T13:22:56.276Z,101851.03
2019-01-10T13:25:25.533Z,101849.05
2019-01-10T13:27:57.253Z,101850.94
2019-01-10T13:30:28.571Z,101847.34
2019-01-10T13:32:58.497Z,101851.52
2019-01-10T13:35:28.126Z,101847.37
2019-01-10T13:37:57.721Z,101852.98
2019-01-10T13:40:28.672Z,101850.94
2019-01-10T13:42:57.830Z,101841.81
2019-01-10T13:45:29.117Z,101851.59
2019-01-10T13:47:58.310Z,101856.24
2019-01-10T13:50:32.018Z,101850.06
2019-01-10T13:53:01.210Z,101856.38
2019-01-10T13:55:30.411Z,101851.84
2019-01-10T13:57:59.818Z,101847.70
2019-01-10T14:00:35.723Z,101853.28
2019-01-10T14:03:04.138Z,101850.44
2019-01-10T14:05:33.705Z,101844.95
2019-01-10T14:08:02.987Z,101848.05
2019-01-10T14:10:32.582Z,101851.52
2019-01-10T14:13:01.729Z,101854.13
2019-01-10T14:15:35.772Z,101846.61
2019-01-10T14:18:05.872Z,101849.23
2019-01-10T14:20:36.560Z,101847.09
2019-01-10T14:23:05.915Z,101841.27
2019-01-10T14:25:35.283Z,101834.48
2019-01-10T14:28:04.502Z,101838.47
2019-01-10T14:30:39.741Z,101831.78
2019-01-10T14:33:11.898Z,101832.38
2019-01-10T14:35:41.447Z,101827.59
2019-01-10T14:38:11.118Z,101821.69
2019-01-10T14:40:40.398Z,101821.79
2019-01-10T14:43:09.997Z,101829.48
2019-01-10T14:45:40.568Z,101831.98
2019-01-10T14:48:11.308Z,101836.13
2019-01-10T14:50:41.265Z,101841.34
2019-01-10T14:53:10.481Z,101843.03
2019-01-10T14:55:39.964Z,101835.64
2019-01-10T14:58:09.115Z,101824.35
2019-01-10T15:00:38.486Z,101823.25
2019-01-10T15:03:07.925Z,101832.36
2019-01-10T15:05:37.230Z,101828.67
2019-01-10T15:08:06.519Z,101830.55
2019-01-10T15:10:36.065Z,101842.88
2019-01-10T15:13:05.918Z,101836.70
2019-01-10T15:15:35.667Z,101833.48
2019-01-10T15:18:06.793Z,101839.73
2019-01-10T15:20:36.691Z,101835.20
2019-01-10T15:23:05.866Z,101826.30
2019-01-10T15:25:35.146Z,101828.25
2019-01-10T15:28:04.305Z,101828.60
2019-01-10T15:30:33.569Z,101819.96
2019-01-10T15:33:03.070Z,101827.22
2019-01-10T15:35:32.580Z,101826.17
2019-01-10T15:38:02.423Z,101827.86
2019-01-10T15:40:33.157Z,101832.50
2019-01-10T15:43:03.714Z,101826.20
2019-01-10T15:45:33.700Z,101828.41
2019-01-10T15:48:03.416Z,101837.70
2019-01-10T15:50:33.243Z,101835.97
2019-01-10T15:53:03.511Z,101840.16
2019-01-10T15:55:33.048Z,101845.59
2019-01-10T15:58:02.278Z,101847.25
2019-01-10T16:00:31.466Z,101844.30
2019-01-10T16:03:01.327Z,101848.32
2019-01-10T16:05:30.486Z,101842.27
2019-01-10T16:07:59.673Z,101846.67
2019-01-10T16:10:29.147Z,101848.25
2019-01-10T16:12:58.521Z,101838.39
2019-01-10T16:15:27.724Z,101839.27
2019-01-10T16:17:56.912Z,101837.81
2019-01-10T16:20:26.127Z,101843.08
2019-01-10T16:22:55.287Z,101841.30
2019-01-10T16:25:24.758Z,101857.47
2019-01-10T16:27:54.479Z,101847.48
2019-01-10T16:30:31.462Z,101833.21
2019-01-10T16:33:01.304Z,101846.53
2019-01-10T16:35:30.583Z,101855.16
2019-01-10T16:38:00.164Z,101838.66
2019-01-10T16:40:29.339Z,101839.81
2019-01-10T16:42:58.995Z,101848.25
2019-01-10T16:45:33.614Z,101837.81
2019-01-10T16:48:03.164Z,101842.65
2019-01-10T16:50:34.212Z,101832.36
2019-01-10T16:53:03.627Z,101835.97
2019-01-10T16:55:34.120Z,101840.92
2019-01-10T16:58:05.155Z,101844.80
2019-01-10T17:00:35.426Z,101847.25
2019-01-10T17:03:05.788Z,101845.25
2019-01-10T17:05:35.030Z,101838.62
2019-01-10T17:08:04.580Z,101833.78
2019-01-10T17:10:34.092Z,101829.75
2019-01-10T17:13:03.699Z,101830.86
2019-01-10T17:15:32.877Z,101826.57
2019-01-10T17:18:02.406Z,101822.50
2019-01-10T17:20:31.825Z,101826.87
2019-01-10T17:23:01.427Z,101827.14
2019-01-10T17:25:30.633Z,101822.23
2019-01-10T17:28:00.535Z,101825.26
2019-01-10T17:30:31.017Z,101829.87
2019-01-10T17:33:00.932Z,101828.91
2019-01-10T17:35:32.397Z,101827.56
2019-01-10T17:38:02.064Z,101831.48
2019-01-10T17:40:31.521Z,101825.91
2019-01-10T17:43:00.716Z,101825.88
2019-01-10T17:45:32.338Z,101828.83
2019-01-10T17:48:01.919Z,101829.40
2019-01-10T17:50:31.382Z,101826.39
2019-01-10T17:53:00.588Z,101830.59
2019-01-10T17:55:30.118Z,101831.16
2019-01-10T17:57:59.704Z,101831.50
2019-01-10T18:00:30.630Z,101821.64
2019-01-10T18:03:00.371Z,101828.67
2019-01-10T18:05:29.589Z,101829.00
2019-01-10T18:07:59.492Z,101825.51
2019-01-10T18:10:28.863Z,101829.42
2019-01-10T18:12:58.432Z,101829.58
2019-01-10T18:15:28.324Z,101828.89
2019-01-10T18:17:57.827Z,101831.81
2019-01-10T18:20:32.549Z,101833.91
2019-01-10T18:23:01.739Z,101828.34
2019-01-10T18:25:30.901Z,101827.50
2019-01-10T18:28:00.218Z,101829.94
2019-01-10T18:30:29.467Z,101835.84
2019-01-10T18:32:58.961Z,101826.82
2019-01-10T18:35:28.883Z,101822.27
2019-01-10T18:37:59.711Z,101823.46
2019-01-10T18:40:29.601Z,101822.78
2019-01-10T18:42:59.545Z,101826.64
2019-01-10T18:45:31.235Z,101819.84
2019-01-10T18:48:00.780Z,101827.61
2019-01-10T18:50:30.364Z,101828.34
2019-01-10T18:53:00.289Z,101829.14
2019-01-10T18:55:29.497Z,101827.45
2019-01-10T18:57:58.764Z,101832.89
2019-01-10T19:00:29.633Z,101830.45
2019-01-10T19:03:00.013Z,101824.95
2019-01-10T19:05:30.495Z,101826.26
2019-01-10T19:08:00.094Z,101815.15
2019-01-10T19:10:29.299Z,101819.13
2019-01-10T19:12:58.541Z,101809.53
2019-01-10T19:15:28.047Z,101808.64
2019-01-10T19:18:03.154Z,101801.66
2019-01-10T19:20:29.333Z,101804.62
2019-01-10T19:23:02.586Z,101803.31
2019-01-10T19:25:32.076Z,101803.54
2019-01-10T19:28:01.485Z,101806.61
2019-01-10T19:30:36.259Z,101798.95
2019-01-10T19:33:06.409Z,101803.58
2019-01-10T19:35:35.880Z,101807.38
2019-01-10T19:38:05.736Z,101800.34
2019-01-10T19:40:34.909Z,101800.02
2019-01-10T19:43:04.827Z,101802.90
2019-01-10T19:45:34.010Z,101800.91
2019-01-10T19:48:09.700Z,101801.54
2019-01-10T19:50:36.017Z,101801.27
2019-01-10T19:53:05.345Z,101797.81
2019-01-10T19:55:34.556Z,101798.36
2019-01-10T19:58:04.188Z,101799.39
2019-01-10T20:00:36.702Z,101799.12
2019-01-10T20:03:06.584Z,101795.83
2019-01-10T20:05:35.937Z,101794.40
2019-01-10T20:08:05.804Z,101795.65
2019-01-10T20:10:35.427Z,101795.54
2019-01-10T20:13:04.702Z,101789.48
2019-01-10T20:15:33.909Z,101791.69
2019-01-10T20:18:03.125Z,101792.14
2019-01-10T20:20:35.652Z,101788.62
2019-01-10T20:23:07.018Z,101787.09
2019-01-10T20:25:37.847Z,101791.11
2019-01-10T20:28:07.195Z,101790.16
2019-01-10T20:30:37.062Z,101783.86
2019-01-10T20:33:06.585Z,101785.63
2019-01-10T20:35:36.034Z,101784.22
2019-01-10T20:38:05.968Z,101777.19
2019-01-10T20:40:36.556Z,101779.17
2019-01-10T20:43:06.283Z,101778.10
2019-01-10T20:45:36.193Z,101769.36
2019-01-10T20:48:06.232Z,101768.01
2019-01-10T20:50:35.497Z,101764.78
2019-01-10T20:53:05.802Z,101764.78
2019-01-10T20:55:36.227Z,101760.30
2019-01-10T20:58:06.019Z,101763.25
2019-01-10T21:00:35.970Z,101767.25
2019-01-10T21:03:05.692Z,101765.67
2019-01-10T21:05:34.899Z,101756.90
2019-01-10T21:08:04.054Z,101756.39
2019-01-10T21:10:33.694Z,101761.43
2019-01-10T21:13:03.050Z,101759.89
2019-01-10T21:15:32.577Z,101769.17
2019-01-10T21:18:01.770Z,101759.94
2019-01-10T21:20:30.942Z,101765.45
2019-01-10T21:23:00.640Z,101765.52
2019-01-10T21:25:29.856Z,101759.00
2019-01-10T21:28:00.703Z,101765.28
2019-01-10T21:30:29.911Z,101765.23
2019-01-10T21:32:59.124Z,101757.80
2019-01-10T21:35:28.767Z,101761.89
2019-01-10T21:37:57.980Z,101751.12
2019-01-10T21:40:28.665Z,101751.34
2019-01-10T21:42:58.546Z,101753.67
2019-01-10T21:45:28.327Z,101757.02
2019-01-10T21:47:59.297Z,101748.92
2019-01-10T21:50:28.501Z,101745.39
2019-01-10T21:52:57.744Z,101740.98
2019-01-10T21:55:26.898Z,101742.52
2019-01-10T21:57:56.157Z,101745.02
2019-01-10T22:00:27.977Z,101745.13
2019-01-10T22:02:57.757Z,101741.03
2019-01-10T22:05:26.919Z,101738.50
2019-01-10T22:07:56.094Z,101741.95
2019-01-10T22:10:25.598Z,101740.87
2019-01-10T22:12:55.280Z,101742.73
2019-01-10T22:15:25.063Z,101747.00
2019-01-10T22:17:54.646Z,101731.28
2019-01-10T22:20:24.764Z,101737.20
2019-01-10T22:22:53.994Z,101733.16
2019-01-10T22:25:23.262Z,101734.75
2019-01-10T22:27:52.871Z,101734.70
2019-01-10T22:30:23.244Z,101732.14
2019-01-10T22:32:52.402Z,101724.89
2019-01-10T22:35:23.189Z,101720.77
2019-01-10T22:37:54.201Z,101724.33
2019-01-10T22:40:24.766Z,101710.83
2019-01-10T22:42:54.358Z,101713.17
2019-01-10T22:45:23.904Z,101714.25
2019-01-10T22:47:53.989Z,101717.58
2019-01-10T22:50:24.929Z,101708.69
2019-01-10T22:52:54.612Z,101708.35
2019-01-10T22:55:25.733Z,101701.37
2019-01-10T22:57:55.269Z,101703.17
2019-01-10T23:01:21.726Z,101701.83
2019-01-10T23:03:51.023Z,101699.10
2019-01-10T23:06:20.205Z,101686.76
2019-01-10T23:08:50.873Z,101687.61
2019-01-10T23:11:23.949Z,101689.41
2019-01-10T23:14:00.563Z,101686.80
2019-01-10T23:16:30.762Z,101676.15
2019-01-10T23:18:59.962Z,101683.63
2019-01-10T23:21:31.193Z,101670.82
2019-01-10T23:24:26.717Z,101675.92
2019-01-10T23:26:57.018Z,101667.14
2019-01-10T23:29:33.076Z,101664.08
2019-01-10T23:32:10.895Z,101664.92
2019-01-10T23:34:47.019Z,101666.80
2019-01-10T23:37:24.734Z,101667.56
2019-01-10T23:39:55.260Z,101660.17
2019-01-10T23:42:24.751Z,101657.94
2019-01-10T23:44:53.960Z,101658.14
2019-01-10T23:47:23.183Z,101659.02
2019-01-10T23:49:52.322Z,101658.06
2019-01-10T23:52:21.612Z,101654.88
2019-01-10T23:54:51.486Z,101646.56
2019-01-10T23:57:21.015Z,101651.92
2019-01-10T23:59:50.212Z,101647.28
